sensor_id;sensor_type;location;lat;lon;timestamp;P1;durP1;ratioP1;P2;durP2;ratioP2
27003;SDS011;14546;47.590;19.022;2023-07-02T00:01:21;18.90;;;14.55;;
27003;SDS011;14546;47.590;19.022;2023-07-02T00:03:47;18.70;;;14.70;;
27003;SDS011;14546;47.590;19.022;2023-07-02T00:06:14;22.65;;;14.23;;
27003;SDS011;14546;47.590;19.022;2023-07-02T00:08:42;20.55;;;14.60;;
27003;SDS011;14546;47.590;19.022;2023-07-02T00:11:08;21.35;;;14.70;;
27003;SDS011;14546;47.590;19.022;2023-07-02T00:13:37;19.67;;;14.20;;
27003;SDS011;14546;47.590;19.022;2023-07-02T00:16:05;17.83;;;13.70;;
27003;SDS011;14546;47.590;19.022;2023-07-02T00:18:32;24.10;;;14.45;;
27003;SDS011;14546;47.590;19.022;2023-07-02T00:21:02;21.00;;;13.70;;
27003;SDS011;14546;47.590;19.022;2023-07-02T00:23:28;21.27;;;14.73;;
27003;SDS011;14546;47.590;19.022;2023-07-02T00:25:55;17.90;;;13.88;;
27003;SDS011;14546;47.590;19.022;2023-07-02T00:28:22;18.77;;;13.70;;
27003;SDS011;14546;47.590;19.022;2023-07-02T00:30:48;20.70;;;14.07;;
27003;SDS011;14546;47.590;19.022;2023-07-02T00:33:14;19.67;;;14.00;;
27003;SDS011;14546;47.590;19.022;2023-07-02T00:35:41;20.65;;;14.07;;
27003;SDS011;14546;47.590;19.022;2023-07-02T00:38:07;19.35;;;14.75;;
27003;SDS011;14546;47.590;19.022;2023-07-02T00:40:33;19.90;;;13.40;;
27003;SDS011;14546;47.590;19.022;2023-07-02T00:42:59;22.92;;;13.90;;
27003;SDS011;14546;47.590;19.022;2023-07-02T00:45:25;19.63;;;14.13;;
27003;SDS011;14546;47.590;19.022;2023-07-02T00:47:53;20.95;;;14.52;;
27003;SDS011;14546;47.590;19.022;2023-07-02T00:50:22;23.90;;;13.73;;
27003;SDS011;14546;47.590;19.022;2023-07-02T00:52:50;19.90;;;13.95;;
27003;SDS011;14546;47.590;19.022;2023-07-02T00:55:17;18.83;;;14.23;;
27003;SDS011;14546;47.590;19.022;2023-07-02T00:57:43;18.02;;;12.93;;
27003;SDS011;14546;47.590;19.022;2023-07-02T01:00:12;19.02;;;14.27;;
27003;SDS011;14546;47.590;19.022;2023-07-02T01:02:39;20.73;;;13.02;;
27003;SDS011;14546;47.590;19.022;2023-07-02T01:05:16;19.45;;;13.35;;
27003;SDS011;14546;47.590;19.022;2023-07-02T01:07:43;18.35;;;13.63;;
27003;SDS011;14546;47.590;19.022;2023-07-02T01:10:09;18.95;;;13.75;;
27003;SDS011;14546;47.590;19.022;2023-07-02T01:12:35;15.68;;;12.90;;
27003;SDS011;14546;47.590;19.022;2023-07-02T01:15:02;21.45;;;14.65;;
27003;SDS011;14546;47.590;19.022;2023-07-02T01:17:29;19.67;;;14.20;;
27003;SDS011;14546;47.590;19.022;2023-07-02T01:20:10;18.35;;;12.57;;
27003;SDS011;14546;47.590;19.022;2023-07-02T01:22:37;20.42;;;12.60;;
27003;SDS011;14546;47.590;19.022;2023-07-02T01:25:04;18.60;;;12.40;;
27003;SDS011;14546;47.590;19.022;2023-07-02T01:27:31;22.65;;;13.05;;
27003;SDS011;14546;47.590;19.022;2023-07-02T01:29:58;18.08;;;13.02;;
27003;SDS011;14546;47.590;19.022;2023-07-02T01:32:25;20.70;;;12.38;;
27003;SDS011;14546;47.590;19.022;2023-07-02T01:34:52;16.95;;;13.18;;
27003;SDS011;14546;47.590;19.022;2023-07-02T01:37:19;20.77;;;13.10;;
27003;SDS011;14546;47.590;19.022;2023-07-02T01:39:46;17.38;;;12.40;;
27003;SDS011;14546;47.590;19.022;2023-07-02T01:42:14;19.65;;;12.65;;
27003;SDS011;14546;47.590;19.022;2023-07-02T01:44:45;21.35;;;12.85;;
27003;SDS011;14546;47.590;19.022;2023-07-02T01:47:11;18.30;;;12.18;;
27003;SDS011;14546;47.590;19.022;2023-07-02T01:49:38;19.45;;;12.30;;
27003;SDS011;14546;47.590;19.022;2023-07-02T01:52:04;15.85;;;12.10;;
27003;SDS011;14546;47.590;19.022;2023-07-02T01:54:32;18.35;;;12.85;;
27003;SDS011;14546;47.590;19.022;2023-07-02T01:56:59;21.02;;;13.73;;
27003;SDS011;14546;47.590;19.022;2023-07-02T01:59:26;16.60;;;11.73;;
27003;SDS011;14546;47.590;19.022;2023-07-02T02:01:53;19.70;;;11.75;;
27003;SDS011;14546;47.590;19.022;2023-07-02T02:04:19;23.35;;;12.63;;
27003;SDS011;14546;47.590;19.022;2023-07-02T02:06:45;22.98;;;13.38;;
27003;SDS011;14546;47.590;19.022;2023-07-02T02:09:11;18.52;;;12.57;;
27003;SDS011;14546;47.590;19.022;2023-07-02T02:11:38;20.38;;;12.85;;
27003;SDS011;14546;47.590;19.022;2023-07-02T02:14:05;23.95;;;12.73;;
27003;SDS011;14546;47.590;19.022;2023-07-02T02:16:32;20.65;;;12.27;;
27003;SDS011;14546;47.590;19.022;2023-07-02T02:19:02;19.77;;;12.85;;
27003;SDS011;14546;47.590;19.022;2023-07-02T02:21:28;20.25;;;12.57;;
27003;SDS011;14546;47.590;19.022;2023-07-02T02:23:55;18.92;;;12.48;;
27003;SDS011;14546;47.590;19.022;2023-07-02T02:26:22;16.70;;;12.10;;
27003;SDS011;14546;47.590;19.022;2023-07-02T02:28:50;17.65;;;12.23;;
27003;SDS011;14546;47.590;19.022;2023-07-02T02:31:17;18.45;;;12.63;;
27003;SDS011;14546;47.590;19.022;2023-07-02T02:33:43;16.38;;;12.15;;
27003;SDS011;14546;47.590;19.022;2023-07-02T02:36:09;18.35;;;12.40;;
27003;SDS011;14546;47.590;19.022;2023-07-02T02:38:36;16.48;;;11.60;;
27003;SDS011;14546;47.590;19.022;2023-07-02T02:41:02;19.38;;;12.40;;
27003;SDS011;14546;47.590;19.022;2023-07-02T02:43:29;17.55;;;11.43;;
27003;SDS011;14546;47.590;19.022;2023-07-02T02:45:55;16.25;;;11.55;;
27003;SDS011;14546;47.590;19.022;2023-07-02T02:48:21;19.42;;;11.70;;
27003;SDS011;14546;47.590;19.022;2023-07-02T02:50:48;17.98;;;11.07;;
27003;SDS011;14546;47.590;19.022;2023-07-02T02:53:15;14.68;;;10.27;;
27003;SDS011;14546;47.590;19.022;2023-07-02T02:55:42;16.63;;;11.18;;
27003;SDS011;14546;47.590;19.022;2023-07-02T02:58:08;15.02;;;10.27;;
27003;SDS011;14546;47.590;19.022;2023-07-02T03:00:34;15.93;;;10.35;;
27003;SDS011;14546;47.590;19.022;2023-07-02T03:03:01;13.32;;;9.73;;
27003;SDS011;14546;47.590;19.022;2023-07-02T03:05:27;13.43;;;9.70;;
27003;SDS011;14546;47.590;19.022;2023-07-02T03:07:55;18.83;;;8.88;;
27003;SDS011;14546;47.590;19.022;2023-07-02T03:10:21;13.48;;;8.90;;
27003;SDS011;14546;47.590;19.022;2023-07-02T03:12:47;14.23;;;9.40;;
27003;SDS011;14546;47.590;19.022;2023-07-02T03:15:14;11.43;;;7.97;;
27003;SDS011;14546;47.590;19.022;2023-07-02T03:17:40;12.63;;;8.77;;
27003;SDS011;14546;47.590;19.022;2023-07-02T03:20:07;13.27;;;7.97;;
27003;SDS011;14546;47.590;19.022;2023-07-02T03:22:33;14.02;;;7.63;;
27003;SDS011;14546;47.590;19.022;2023-07-02T03:25:00;13.27;;;8.52;;
27003;SDS011;14546;47.590;19.022;2023-07-02T03:27:27;15.70;;;8.60;;
27003;SDS011;14546;47.590;19.022;2023-07-02T03:29:53;13.75;;;8.02;;
27003;SDS011;14546;47.590;19.022;2023-07-02T03:32:20;11.70;;;7.97;;
27003;SDS011;14546;47.590;19.022;2023-07-02T03:34:47;15.25;;;8.00;;
27003;SDS011;14546;47.590;19.022;2023-07-02T03:37:13;15.55;;;7.78;;
27003;SDS011;14546;47.590;19.022;2023-07-02T03:39:39;10.10;;;7.45;;
27003;SDS011;14546;47.590;19.022;2023-07-02T03:42:05;9.98;;;7.82;;
27003;SDS011;14546;47.590;19.022;2023-07-02T03:44:32;14.73;;;7.88;;
27003;SDS011;14546;47.590;19.022;2023-07-02T03:46:58;14.57;;;7.78;;
27003;SDS011;14546;47.590;19.022;2023-07-02T03:49:25;11.85;;;7.88;;
27003;SDS011;14546;47.590;19.022;2023-07-02T03:51:51;18.25;;;7.57;;
27003;SDS011;14546;47.590;19.022;2023-07-02T03:54:18;12.60;;;7.43;;
27003;SDS011;14546;47.590;19.022;2023-07-02T03:56:44;11.57;;;7.03;;
27003;SDS011;14546;47.590;19.022;2023-07-02T03:59:10;9.90;;;7.35;;
27003;SDS011;14546;47.590;19.022;2023-07-02T04:01:36;10.50;;;7.60;;
27003;SDS011;14546;47.590;19.022;2023-07-02T04:04:02;11.50;;;7.85;;
27003;SDS011;14546;47.590;19.022;2023-07-02T04:06:29;10.95;;;6.82;;
27003;SDS011;14546;47.590;19.022;2023-07-02T04:08:56;12.48;;;7.55;;
27003;SDS011;14546;47.590;19.022;2023-07-02T04:11:22;11.43;;;7.13;;
27003;SDS011;14546;47.590;19.022;2023-07-02T04:13:48;10.75;;;7.32;;
27003;SDS011;14546;47.590;19.022;2023-07-02T04:16:14;12.27;;;6.70;;
27003;SDS011;14546;47.590;19.022;2023-07-02T04:18:40;12.73;;;7.20;;
27003;SDS011;14546;47.590;19.022;2023-07-02T04:21:07;9.75;;;7.07;;
27003;SDS011;14546;47.590;19.022;2023-07-02T04:23:33;11.90;;;7.20;;
27003;SDS011;14546;47.590;19.022;2023-07-02T04:25:59;8.45;;;7.00;;
27003;SDS011;14546;47.590;19.022;2023-07-02T04:28:25;10.63;;;7.20;;
27003;SDS011;14546;47.590;19.022;2023-07-02T04:30:52;11.40;;;6.97;;
27003;SDS011;14546;47.590;19.022;2023-07-02T04:33:19;10.32;;;7.10;;
27003;SDS011;14546;47.590;19.022;2023-07-02T04:35:45;10.18;;;6.68;;
27003;SDS011;14546;47.590;19.022;2023-07-02T04:38:12;11.38;;;7.70;;
27003;SDS011;14546;47.590;19.022;2023-07-02T04:40:39;13.45;;;7.47;;
27003;SDS011;14546;47.590;19.022;2023-07-02T04:43:07;14.50;;;7.97;;
27003;SDS011;14546;47.590;19.022;2023-07-02T04:45:34;11.40;;;6.57;;
27003;SDS011;14546;47.590;19.022;2023-07-02T04:48:00;12.30;;;7.20;;
27003;SDS011;14546;47.590;19.022;2023-07-02T04:50:27;21.88;;;7.18;;
27003;SDS011;14546;47.590;19.022;2023-07-02T04:52:54;12.45;;;6.85;;
27003;SDS011;14546;47.590;19.022;2023-07-02T04:55:21;11.40;;;7.05;;
27003;SDS011;14546;47.590;19.022;2023-07-02T04:57:48;11.18;;;6.68;;
27003;SDS011;14546;47.590;19.022;2023-07-02T05:00:14;15.20;;;6.82;;
27003;SDS011;14546;47.590;19.022;2023-07-02T05:02:41;12.98;;;6.68;;
27003;SDS011;14546;47.590;19.022;2023-07-02T05:05:08;10.23;;;6.82;;
27003;SDS011;14546;47.590;19.022;2023-07-02T05:07:34;10.07;;;6.82;;
27003;SDS011;14546;47.590;19.022;2023-07-02T05:10:00;9.05;;;5.95;;
27003;SDS011;14546;47.590;19.022;2023-07-02T05:12:28;12.65;;;6.40;;
27003;SDS011;14546;47.590;19.022;2023-07-02T05:14:56;13.10;;;6.35;;
27003;SDS011;14546;47.590;19.022;2023-07-02T05:17:23;10.45;;;6.57;;
27003;SDS011;14546;47.590;19.022;2023-07-02T05:19:49;11.00;;;6.57;;
27003;SDS011;14546;47.590;19.022;2023-07-02T05:22:16;10.85;;;6.20;;
27003;SDS011;14546;47.590;19.022;2023-07-02T05:24:43;8.70;;;5.93;;
27003;SDS011;14546;47.590;19.022;2023-07-02T05:27:09;8.55;;;5.55;;
27003;SDS011;14546;47.590;19.022;2023-07-02T05:29:35;9.05;;;5.90;;
27003;SDS011;14546;47.590;19.022;2023-07-02T05:32:01;9.00;;;5.72;;
27003;SDS011;14546;47.590;19.022;2023-07-02T05:34:27;10.40;;;5.55;;
27003;SDS011;14546;47.590;19.022;2023-07-02T05:36:54;9.30;;;6.05;;
27003;SDS011;14546;47.590;19.022;2023-07-02T05:39:21;12.48;;;6.30;;
27003;SDS011;14546;47.590;19.022;2023-07-02T05:41:48;11.50;;;6.25;;
27003;SDS011;14546;47.590;19.022;2023-07-02T05:44:14;10.82;;;5.88;;
27003;SDS011;14546;47.590;19.022;2023-07-02T05:46:40;10.55;;;5.90;;
27003;SDS011;14546;47.590;19.022;2023-07-02T05:49:07;12.10;;;5.55;;
27003;SDS011;14546;47.590;19.022;2023-07-02T05:51:34;11.38;;;6.00;;
27003;SDS011;14546;47.590;19.022;2023-07-02T05:54:00;7.78;;;5.22;;
27003;SDS011;14546;47.590;19.022;2023-07-02T05:56:26;8.52;;;5.88;;
27003;SDS011;14546;47.590;19.022;2023-07-02T05:58:52;8.25;;;6.00;;
27003;SDS011;14546;47.590;19.022;2023-07-02T06:01:19;17.10;;;5.65;;
27003;SDS011;14546;47.590;19.022;2023-07-02T06:03:48;7.03;;;5.60;;
27003;SDS011;14546;47.590;19.022;2023-07-02T06:06:15;8.07;;;5.05;;
27003;SDS011;14546;47.590;19.022;2023-07-02T06:08:41;10.10;;;5.60;;
27003;SDS011;14546;47.590;19.022;2023-07-02T06:11:09;10.63;;;6.35;;
27003;SDS011;14546;47.590;19.022;2023-07-02T06:13:36;9.75;;;5.28;;
27003;SDS011;14546;47.590;19.022;2023-07-02T06:16:02;9.55;;;5.70;;
27003;SDS011;14546;47.590;19.022;2023-07-02T06:18:29;14.52;;;5.80;;
27003;SDS011;14546;47.590;19.022;2023-07-02T06:20:55;8.75;;;5.18;;
27003;SDS011;14546;47.590;19.022;2023-07-02T06:23:21;11.13;;;5.50;;
27003;SDS011;14546;47.590;19.022;2023-07-02T06:25:48;7.43;;;5.13;;
27003;SDS011;14546;47.590;19.022;2023-07-02T06:28:16;7.68;;;4.88;;
27003;SDS011;14546;47.590;19.022;2023-07-02T06:30:43;7.63;;;5.60;;
27003;SDS011;14546;47.590;19.022;2023-07-02T06:33:09;6.95;;;5.07;;
27003;SDS011;14546;47.590;19.022;2023-07-02T06:35:35;8.48;;;4.75;;
27003;SDS011;14546;47.590;19.022;2023-07-02T06:38:01;17.42;;;5.38;;
27003;SDS011;14546;47.590;19.022;2023-07-02T06:40:27;11.75;;;4.93;;
27003;SDS011;14546;47.590;19.022;2023-07-02T06:42:54;6.50;;;4.60;;
27003;SDS011;14546;47.590;19.022;2023-07-02T06:45:20;9.13;;;5.57;;
27003;SDS011;14546;47.590;19.022;2023-07-02T06:47:46;8.88;;;5.05;;
27003;SDS011;14546;47.590;19.022;2023-07-02T06:50:13;15.80;;;5.10;;
27003;SDS011;14546;47.590;19.022;2023-07-02T06:52:39;10.70;;;5.45;;
27003;SDS011;14546;47.590;19.022;2023-07-02T06:55:05;8.70;;;5.13;;
27003;SDS011;14546;47.590;19.022;2023-07-02T06:57:32;6.32;;;4.90;;
27003;SDS011;14546;47.590;19.022;2023-07-02T06:59:58;6.25;;;4.82;;
27003;SDS011;14546;47.590;19.022;2023-07-02T07:02:25;7.97;;;5.18;;
27003;SDS011;14546;47.590;19.022;2023-07-02T07:04:51;8.60;;;4.85;;
27003;SDS011;14546;47.590;19.022;2023-07-02T07:07:18;10.25;;;5.10;;
27003;SDS011;14546;47.590;19.022;2023-07-02T07:09:46;10.60;;;4.57;;
27003;SDS011;14546;47.590;19.022;2023-07-02T07:12:13;8.27;;;4.95;;
27003;SDS011;14546;47.590;19.022;2023-07-02T07:14:40;10.52;;;4.93;;
27003;SDS011;14546;47.590;19.022;2023-07-02T07:17:08;5.97;;;5.10;;
27003;SDS011;14546;47.590;19.022;2023-07-02T07:19:34;11.68;;;5.32;;
27003;SDS011;14546;47.590;19.022;2023-07-02T07:22:00;9.55;;;4.55;;
27003;SDS011;14546;47.590;19.022;2023-07-02T07:24:26;9.20;;;4.82;;
27003;SDS011;14546;47.590;19.022;2023-07-02T07:26:52;8.45;;;4.82;;
27003;SDS011;14546;47.590;19.022;2023-07-02T07:29:18;10.15;;;5.13;;
27003;SDS011;14546;47.590;19.022;2023-07-02T07:31:44;7.47;;;4.70;;
27003;SDS011;14546;47.590;19.022;2023-07-02T07:34:11;9.70;;;4.68;;
27003;SDS011;14546;47.590;19.022;2023-07-02T07:36:37;11.57;;;4.93;;
27003;SDS011;14546;47.590;19.022;2023-07-02T07:39:03;10.15;;;4.68;;
27003;SDS011;14546;47.590;19.022;2023-07-02T07:41:29;7.03;;;4.93;;
27003;SDS011;14546;47.590;19.022;2023-07-02T07:43:55;5.22;;;4.22;;
27003;SDS011;14546;47.590;19.022;2023-07-02T07:46:21;9.30;;;4.35;;
27003;SDS011;14546;47.590;19.022;2023-07-02T07:48:48;7.80;;;4.80;;
27003;SDS011;14546;47.590;19.022;2023-07-02T07:51:14;7.53;;;4.70;;
27003;SDS011;14546;47.590;19.022;2023-07-02T07:53:40;6.82;;;4.32;;
27003;SDS011;14546;47.590;19.022;2023-07-02T07:56:06;6.07;;;4.07;;
27003;SDS011;14546;47.590;19.022;2023-07-02T07:58:32;6.95;;;4.60;;
27003;SDS011;14546;47.590;19.022;2023-07-02T08:00:59;7.30;;;4.25;;
27003;SDS011;14546;47.590;19.022;2023-07-02T08:03:25;10.20;;;4.05;;
27003;SDS011;14546;47.590;19.022;2023-07-02T08:05:51;5.88;;;3.83;;
27003;SDS011;14546;47.590;19.022;2023-07-02T08:08:17;4.78;;;4.07;;
27003;SDS011;14546;47.590;19.022;2023-07-02T08:10:43;8.60;;;3.67;;
27003;SDS011;14546;47.590;19.022;2023-07-02T08:13:10;5.22;;;3.58;;
27003;SDS011;14546;47.590;19.022;2023-07-02T08:15:37;7.18;;;3.50;;
27003;SDS011;14546;47.590;19.022;2023-07-02T08:18:03;8.10;;;3.78;;
27003;SDS011;14546;47.590;19.022;2023-07-02T08:20:29;7.22;;;3.70;;
27003;SDS011;14546;47.590;19.022;2023-07-02T08:22:55;4.75;;;3.45;;
27003;SDS011;14546;47.590;19.022;2023-07-02T08:25:21;6.70;;;3.47;;
27003;SDS011;14546;47.590;19.022;2023-07-02T08:27:47;11.82;;;3.75;;
27003;SDS011;14546;47.590;19.022;2023-07-02T08:30:13;6.03;;;3.35;;
27003;SDS011;14546;47.590;19.022;2023-07-02T08:32:39;13.20;;;3.47;;
27003;SDS011;14546;47.590;19.022;2023-07-02T08:35:05;7.35;;;3.60;;
27003;SDS011;14546;47.590;19.022;2023-07-02T08:37:31;4.30;;;3.38;;
27003;SDS011;14546;47.590;19.022;2023-07-02T08:39:57;5.80;;;3.42;;
27003;SDS011;14546;47.590;19.022;2023-07-02T08:42:23;8.80;;;3.90;;
27003;SDS011;14546;47.590;19.022;2023-07-02T08:44:54;5.32;;;3.88;;
27003;SDS011;14546;47.590;19.022;2023-07-02T08:47:21;5.68;;;3.40;;
27003;SDS011;14546;47.590;19.022;2023-07-02T08:49:48;7.65;;;4.07;;
27003;SDS011;14546;47.590;19.022;2023-07-02T08:52:14;9.30;;;4.05;;
27003;SDS011;14546;47.590;19.022;2023-07-02T08:54:40;8.70;;;3.70;;
27003;SDS011;14546;47.590;19.022;2023-07-02T08:57:08;6.82;;;4.10;;
27003;SDS011;14546;47.590;19.022;2023-07-02T08:59:35;6.03;;;3.83;;
27003;SDS011;14546;47.590;19.022;2023-07-02T09:02:01;7.03;;;4.03;;
27003;SDS011;14546;47.590;19.022;2023-07-02T09:04:27;6.10;;;3.80;;
27003;SDS011;14546;47.590;19.022;2023-07-02T09:07:12;6.82;;;4.18;;
27003;SDS011;14546;47.590;19.022;2023-07-02T09:09:45;6.10;;;4.22;;
27003;SDS011;14546;47.590;19.022;2023-07-02T09:15:03;7.22;;;4.45;;
27003;SDS011;14546;47.590;19.022;2023-07-02T09:17:32;8.13;;;4.30;;
27003;SDS011;14546;47.590;19.022;2023-07-02T09:19:59;7.13;;;4.38;;
27003;SDS011;14546;47.590;19.022;2023-07-02T09:22:25;8.45;;;4.47;;
27003;SDS011;14546;47.590;19.022;2023-07-02T09:24:52;10.80;;;4.82;;
27003;SDS011;14546;47.590;19.022;2023-07-02T09:27:34;6.55;;;4.90;;
27003;SDS011;14546;47.590;19.022;2023-07-02T09:30:05;6.88;;;4.80;;
27003;SDS011;14546;47.590;19.022;2023-07-02T09:32:32;7.05;;;4.50;;
27003;SDS011;14546;47.590;19.022;2023-07-02T09:34:58;7.60;;;4.78;;
27003;SDS011;14546;47.590;19.022;2023-07-02T09:37:24;13.35;;;4.40;;
27003;SDS011;14546;47.590;19.022;2023-07-02T09:39:51;9.07;;;4.15;;
27003;SDS011;14546;47.590;19.022;2023-07-02T09:42:17;9.13;;;4.90;;
27003;SDS011;14546;47.590;19.022;2023-07-02T09:44:45;8.25;;;4.10;;
27003;SDS011;14546;47.590;19.022;2023-07-02T09:47:11;8.82;;;4.53;;
27003;SDS011;14546;47.590;19.022;2023-07-02T09:49:42;9.90;;;4.50;;
27003;SDS011;14546;47.590;19.022;2023-07-02T09:52:09;6.68;;;4.05;;
27003;SDS011;14546;47.590;19.022;2023-07-02T09:54:36;8.35;;;4.07;;
27003;SDS011;14546;47.590;19.022;2023-07-02T09:57:03;10.65;;;4.47;;
27003;SDS011;14546;47.590;19.022;2023-07-02T09:59:29;9.32;;;3.85;;
27003;SDS011;14546;47.590;19.022;2023-07-02T10:01:55;20.23;;;4.72;;
27003;SDS011;14546;47.590;19.022;2023-07-02T10:04:22;6.25;;;4.30;;
27003;SDS011;14546;47.590;19.022;2023-07-02T10:06:55;5.57;;;3.90;;
27003;SDS011;14546;47.590;19.022;2023-07-02T10:09:33;5.75;;;4.32;;
27003;SDS011;14546;47.590;19.022;2023-07-02T10:12:00;6.45;;;4.65;;
27003;SDS011;14546;47.590;19.022;2023-07-02T10:14:26;4.93;;;3.95;;
27003;SDS011;14546;47.590;19.022;2023-07-02T10:16:52;8.25;;;3.97;;
27003;SDS011;14546;47.590;19.022;2023-07-02T10:19:19;5.93;;;4.43;;
27003;SDS011;14546;47.590;19.022;2023-07-02T10:21:45;6.18;;;3.70;;
27003;SDS011;14546;47.590;19.022;2023-07-02T10:24:14;5.47;;;3.75;;
27003;SDS011;14546;47.590;19.022;2023-07-02T10:27:00;5.57;;;3.78;;
27003;SDS011;14546;47.590;19.022;2023-07-02T10:29:27;4.55;;;3.35;;
27003;SDS011;14546;47.590;19.022;2023-07-02T10:31:55;4.70;;;4.22;;
27003;SDS011;14546;47.590;19.022;2023-07-02T10:34:34;9.10;;;3.95;;
27003;SDS011;14546;47.590;19.022;2023-07-02T10:37:00;9.07;;;4.20;;
27003;SDS011;14546;47.590;19.022;2023-07-02T10:39:28;8.98;;;3.75;;
27003;SDS011;14546;47.590;19.022;2023-07-02T10:42:03;8.02;;;3.80;;
27003;SDS011;14546;47.590;19.022;2023-07-02T10:44:29;4.35;;;3.95;;
27003;SDS011;14546;47.590;19.022;2023-07-02T10:46:57;9.25;;;3.80;;
27003;SDS011;14546;47.590;19.022;2023-07-02T10:49:29;4.15;;;3.60;;
27003;SDS011;14546;47.590;19.022;2023-07-02T10:51:58;7.23;;;3.90;;
27003;SDS011;14546;47.590;19.022;2023-07-02T10:54:24;9.52;;;4.00;;
27003;SDS011;14546;47.590;19.022;2023-07-02T10:56:56;6.97;;;3.47;;
27003;SDS011;14546;47.590;19.022;2023-07-02T10:59:25;9.55;;;3.75;;
27003;SDS011;14546;47.590;19.022;2023-07-02T11:01:51;5.63;;;3.50;;
27003;SDS011;14546;47.590;19.022;2023-07-02T11:04:17;12.63;;;3.53;;
27003;SDS011;14546;47.590;19.022;2023-07-02T11:06:43;6.93;;;3.45;;
27003;SDS011;14546;47.590;19.022;2023-07-02T11:09:16;7.72;;;3.50;;
27003;SDS011;14546;47.590;19.022;2023-07-02T11:11:51;11.23;;;3.78;;
27003;SDS011;14546;47.590;19.022;2023-07-02T11:16:57;10.52;;;3.70;;
27003;SDS011;14546;47.590;19.022;2023-07-02T11:19:25;7.80;;;3.60;;
27003;SDS011;14546;47.590;19.022;2023-07-02T11:21:52;5.78;;;4.03;;
27003;SDS011;14546;47.590;19.022;2023-07-02T11:24:36;6.95;;;3.40;;
27003;SDS011;14546;47.590;19.022;2023-07-02T11:29:30;6.65;;;3.67;;
27003;SDS011;14546;47.590;19.022;2023-07-02T11:32:07;5.05;;;3.75;;
27003;SDS011;14546;47.590;19.022;2023-07-02T11:34:34;5.60;;;3.45;;
27003;SDS011;14546;47.590;19.022;2023-07-02T11:37:00;4.07;;;3.17;;
27003;SDS011;14546;47.590;19.022;2023-07-02T11:39:26;5.25;;;3.33;;
27003;SDS011;14546;47.590;19.022;2023-07-02T11:41:52;6.18;;;3.65;;
27003;SDS011;14546;47.590;19.022;2023-07-02T11:44:18;6.15;;;3.20;;
27003;SDS011;14546;47.590;19.022;2023-07-02T11:46:45;4.60;;;3.42;;
27003;SDS011;14546;47.590;19.022;2023-07-02T11:49:12;5.47;;;3.20;;
27003;SDS011;14546;47.590;19.022;2023-07-02T11:51:38;5.43;;;3.03;;
27003;SDS011;14546;47.590;19.022;2023-07-02T11:54:05;7.65;;;3.38;;
27003;SDS011;14546;47.590;19.022;2023-07-02T11:56:31;5.70;;;3.08;;
27003;SDS011;14546;47.590;19.022;2023-07-02T11:58:58;7.25;;;3.28;;
27003;SDS011;14546;47.590;19.022;2023-07-02T12:01:24;5.60;;;2.90;;
27003;SDS011;14546;47.590;19.022;2023-07-02T12:03:50;5.40;;;2.60;;
27003;SDS011;14546;47.590;19.022;2023-07-02T12:06:16;5.47;;;3.20;;
27003;SDS011;14546;47.590;19.022;2023-07-02T12:08:42;6.50;;;2.83;;
27003;SDS011;14546;47.590;19.022;2023-07-02T12:11:08;4.10;;;2.67;;
27003;SDS011;14546;47.590;19.022;2023-07-02T12:13:34;10.25;;;2.90;;
27003;SDS011;14546;47.590;19.022;2023-07-02T12:16:01;4.57;;;2.75;;
27003;SDS011;14546;47.590;19.022;2023-07-02T12:18:28;4.05;;;2.72;;
27003;SDS011;14546;47.590;19.022;2023-07-02T12:20:55;5.95;;;2.97;;
27003;SDS011;14546;47.590;19.022;2023-07-02T12:23:21;7.93;;;2.88;;
27003;SDS011;14546;47.590;19.022;2023-07-02T12:25:47;5.65;;;3.30;;
27003;SDS011;14546;47.590;19.022;2023-07-02T12:28:14;6.05;;;2.70;;
27003;SDS011;14546;47.590;19.022;2023-07-02T12:30:40;9.48;;;3.47;;
27003;SDS011;14546;47.590;19.022;2023-07-02T12:33:07;3.90;;;2.40;;
27003;SDS011;14546;47.590;19.022;2023-07-02T12:35:33;4.95;;;2.30;;
27003;SDS011;14546;47.590;19.022;2023-07-02T12:37:59;3.80;;;2.58;;
27003;SDS011;14546;47.590;19.022;2023-07-02T12:40:25;6.57;;;2.53;;
27003;SDS011;14546;47.590;19.022;2023-07-02T12:42:52;8.25;;;2.50;;
27003;SDS011;14546;47.590;19.022;2023-07-02T12:45:18;7.25;;;2.10;;
27003;SDS011;14546;47.590;19.022;2023-07-02T12:47:45;5.13;;;2.10;;
27003;SDS011;14546;47.590;19.022;2023-07-02T12:50:11;5.97;;;2.10;;
27003;SDS011;14546;47.590;19.022;2023-07-02T12:52:37;2.30;;;1.80;;
27003;SDS011;14546;47.590;19.022;2023-07-02T12:55:04;2.83;;;1.75;;
27003;SDS011;14546;47.590;19.022;2023-07-02T12:57:31;2.42;;;1.67;;
27003;SDS011;14546;47.590;19.022;2023-07-02T12:59:57;7.97;;;1.58;;
27003;SDS011;14546;47.590;19.022;2023-07-02T13:02:23;1.33;;;1.23;;
27003;SDS011;14546;47.590;19.022;2023-07-02T13:04:50;3.88;;;1.25;;
27003;SDS011;14546;47.590;19.022;2023-07-02T13:07:16;1.80;;;1.20;;
27003;SDS011;14546;47.590;19.022;2023-07-02T13:09:43;8.38;;;1.42;;
27003;SDS011;14546;47.590;19.022;2023-07-02T13:12:10;1.60;;;0.95;;
27003;SDS011;14546;47.590;19.022;2023-07-02T13:14:37;2.92;;;1.10;;
27003;SDS011;14546;47.590;19.022;2023-07-02T13:17:03;5.78;;;1.17;;
27003;SDS011;14546;47.590;19.022;2023-07-02T13:19:30;1.65;;;1.00;;
27003;SDS011;14546;47.590;19.022;2023-07-02T13:21:57;2.97;;;1.00;;
27003;SDS011;14546;47.590;19.022;2023-07-02T13:24:23;2.63;;;1.25;;
27003;SDS011;14546;47.590;19.022;2023-07-02T13:26:50;1.85;;;1.38;;
27003;SDS011;14546;47.590;19.022;2023-07-02T13:29:16;5.60;;;1.27;;
27003;SDS011;14546;47.590;19.022;2023-07-02T13:31:42;3.45;;;1.23;;
27003;SDS011;14546;47.590;19.022;2023-07-02T13:34:09;2.70;;;1.25;;
27003;SDS011;14546;47.590;19.022;2023-07-02T13:36:35;1.17;;;1.08;;
27003;SDS011;14546;47.590;19.022;2023-07-02T13:39:01;1.88;;;1.10;;
27003;SDS011;14546;47.590;19.022;2023-07-02T13:41:27;3.03;;;1.08;;
27003;SDS011;14546;47.590;19.022;2023-07-02T13:43:55;6.43;;;1.13;;
27003;SDS011;14546;47.590;19.022;2023-07-02T13:46:22;2.35;;;1.00;;
27003;SDS011;14546;47.590;19.022;2023-07-02T13:48:48;1.60;;;1.20;;
27003;SDS011;14546;47.590;19.022;2023-07-02T13:51:14;2.38;;;1.13;;
27003;SDS011;14546;47.590;19.022;2023-07-02T13:53:40;5.97;;;1.20;;
27003;SDS011;14546;47.590;19.022;2023-07-02T13:56:07;3.28;;;1.30;;
27003;SDS011;14546;47.590;19.022;2023-07-02T13:58:47;1.65;;;1.10;;
27003;SDS011;14546;47.590;19.022;2023-07-02T14:01:24;2.58;;;1.40;;
27003;SDS011;14546;47.590;19.022;2023-07-02T14:03:50;2.75;;;1.10;;
27003;SDS011;14546;47.590;19.022;2023-07-02T14:06:19;2.17;;;1.13;;
27003;SDS011;14546;47.590;19.022;2023-07-02T14:08:46;1.60;;;1.23;;
27003;SDS011;14546;47.590;19.022;2023-07-02T14:11:13;3.53;;;1.05;;
27003;SDS011;14546;47.590;19.022;2023-07-02T14:13:39;1.55;;;1.20;;
27003;SDS011;14546;47.590;19.022;2023-07-02T14:16:05;4.78;;;1.30;;
27003;SDS011;14546;47.590;19.022;2023-07-02T14:18:31;3.00;;;1.25;;
27003;SDS011;14546;47.590;19.022;2023-07-02T14:20:57;2.58;;;1.42;;
27003;SDS011;14546;47.590;19.022;2023-07-02T14:23:23;3.67;;;1.45;;
27003;SDS011;14546;47.590;19.022;2023-07-02T14:25:50;4.25;;;1.50;;
27003;SDS011;14546;47.590;19.022;2023-07-02T14:28:16;2.13;;;1.40;;
27003;SDS011;14546;47.590;19.022;2023-07-02T14:30:42;4.00;;;1.50;;
27003;SDS011;14546;47.590;19.022;2023-07-02T14:33:09;1.90;;;1.50;;